createdAt,value
2023-04-11T00:00:13.777Z,5.65
2023-04-11T00:01:16.730Z,4.72
2023-04-11T00:02:18.773Z,8.98
2023-04-11T00:03:22.443Z,7.05
2023-04-11T00:04:25.472Z,6.35
2023-04-11T00:05:29.063Z,6.72
2023-04-11T00:06:31.303Z,7.32
2023-04-11T00:07:34.300Z,6.30
2023-04-11T00:08:37.804Z,5.85
2023-04-11T00:09:40.882Z,4.97
2023-04-11T00:10:44.976Z,7.28
2023-04-11T00:11:48.984Z,5.95
2023-04-11T00:12:50.939Z,5.40
2023-04-11T00:13:57.682Z,5.85
2023-04-11T00:14:59.739Z,5.72
2023-04-11T00:16:03.400Z,6.13
2023-04-11T00:17:12.481Z,4.75
2023-04-11T00:18:15.517Z,7.07
2023-04-11T00:19:17.622Z,6.10
2023-04-11T00:20:20.767Z,4.88
2023-04-11T00:21:22.762Z,5.13
2023-04-11T00:22:27.630Z,6.18
2023-04-11T00:23:29.656Z,6.55
2023-04-11T00:24:34.128Z,5.57
2023-04-11T00:25:37.321Z,7.65
2023-04-11T00:26:40.404Z,5.60
2023-04-11T00:27:42.306Z,8.68
2023-04-11T00:28:45.217Z,5.75
2023-04-11T00:29:47.216Z,8.30
2023-04-11T00:30:50.164Z,5.43
2023-04-11T00:31:52.797Z,6.00
2023-04-11T00:32:55.877Z,7.35
2023-04-11T00:33:58.224Z,7.75
2023-04-11T00:35:01.794Z,5.25
2023-04-11T00:36:04.006Z,7.20
2023-04-11T00:37:07.055Z,8.15
2023-04-11T00:38:09.042Z,7.75
2023-04-11T00:39:13.132Z,4.78
2023-04-11T00:40:18.672Z,5.85
2023-04-11T00:41:21.698Z,5.80
2023-04-11T00:42:23.638Z,6.75
2023-04-11T00:43:26.674Z,4.47
2023-04-11T00:44:28.579Z,4.88
2023-04-11T00:45:31.783Z,5.97
2023-04-11T00:46:35.924Z,5.65
2023-04-11T00:47:39.193Z,6.55
2023-04-11T00:48:41.657Z,5.07
2023-04-11T00:49:44.822Z,5.60
2023-04-11T00:50:46.834Z,5.90
2023-04-11T00:51:49.786Z,5.78
2023-04-11T00:52:53.335Z,7.07
2023-04-11T00:53:56.384Z,5.82
2023-04-11T00:54:58.553Z,6.15
2023-04-11T00:56:02.924Z,7.43
2023-04-11T00:57:07.026Z,6.28
2023-04-11T00:58:10.008Z,8.90
2023-04-11T00:59:12.422Z,7.20
2023-04-11T01:00:16.227Z,5.30
2023-04-11T01:01:19.943Z,8.43
2023-04-11T01:02:24.870Z,7.80
2023-04-11T01:03:28.259Z,7.05
2023-04-11T01:04:30.622Z,7.43
2023-04-11T01:05:35.267Z,5.90
2023-04-11T01:06:37.696Z,7.28
2023-04-11T01:07:45.660Z,7.63
2023-04-11T01:08:48.722Z,5.20
2023-04-11T01:09:52.704Z,5.63
2023-04-11T01:10:56.026Z,12.38
2023-04-11T01:12:00.053Z,6.68
2023-04-11T01:13:03.234Z,6.22
2023-04-11T01:14:05.882Z,5.82
2023-04-11T01:15:09.414Z,6.93
2023-04-11T01:16:11.747Z,7.47
2023-04-11T01:17:14.864Z,7.45
2023-04-11T01:18:16.800Z,5.40
2023-04-11T01:19:21.866Z,7.13
2023-04-11T01:20:24.277Z,6.82
2023-04-11T01:21:28.685Z,4.72
2023-04-11T01:22:30.811Z,8.90
2023-04-11T01:23:35.467Z,4.50
2023-04-11T01:24:37.480Z,7.10
2023-04-11T01:25:40.488Z,7.68
2023-04-11T01:26:42.875Z,5.57
2023-04-11T01:27:45.943Z,6.53
2023-04-11T01:28:47.904Z,5.82
2023-04-11T01:29:51.067Z,5.25
2023-04-11T01:30:53.136Z,5.95
2023-04-11T01:31:56.143Z,4.95
2023-04-11T01:32:58.312Z,7.57
2023-04-11T01:34:02.168Z,5.20
2023-04-11T01:35:05.772Z,5.47
2023-04-11T01:36:09.938Z,4.32
2023-04-11T01:37:11.948Z,9.05
2023-04-11T01:38:14.940Z,8.10
2023-04-11T01:39:18.244Z,9.65
2023-04-11T01:40:22.650Z,5.25
2023-04-11T01:41:26.495Z,6.88
2023-04-11T01:42:30.493Z,7.10
2023-04-11T01:43:32.588Z,6.95
2023-04-11T01:44:37.612Z,7.63
2023-04-11T01:45:40.807Z,5.93
2023-04-11T01:46:44.286Z,7.20
2023-04-11T01:47:47.423Z,7.60
2023-04-11T01:48:51.699Z,7.80
2023-04-11T01:49:54.092Z,6.47
2023-04-11T01:50:57.198Z,6.57
2023-04-11T01:51:59.140Z,6.75
2023-04-11T01:53:02.161Z,6.90
2023-04-11T01:54:04.697Z,7.00
2023-04-11T01:55:09.795Z,7.50
2023-04-11T01:56:12.685Z,8.13
2023-04-11T01:57:15.671Z,5.97
2023-04-11T01:58:17.700Z,7.30
2023-04-11T01:59:20.815Z,7.43
2023-04-11T02:00:23.023Z,6.97
2023-04-11T02:01:26.543Z,5.72
2023-04-11T02:02:28.717Z,6.70
2023-04-11T02:03:31.940Z,7.63
2023-04-11T02:04:34.071Z,8.27
2023-04-11T02:05:37.022Z,8.43
2023-04-11T02:06:38.988Z,7.50
2023-04-11T02:07:41.914Z,6.65
2023-04-11T02:08:44.262Z,7.00
2023-04-11T02:09:47.209Z,7.10
2023-04-11T02:10:50.568Z,8.52
2023-04-11T02:11:53.488Z,6.95
2023-04-11T02:12:55.401Z,7.75
2023-04-11T02:13:58.335Z,7.30
2023-04-11T02:15:00.407Z,6.47
2023-04-11T02:16:08.987Z,6.45
2023-04-11T02:17:11.565Z,7.82
2023-04-11T02:18:14.540Z,7.63
2023-04-11T02:19:16.486Z,7.47
2023-04-11T02:20:21.395Z,7.35
2023-04-11T02:21:23.483Z,6.93
2023-04-11T02:22:26.436Z,6.00
2023-04-11T02:23:28.388Z,7.88
2023-04-11T02:24:31.560Z,5.47
2023-04-11T02:25:33.660Z,8.15
2023-04-11T02:26:38.191Z,5.95
2023-04-11T02:27:40.206Z,7.95
2023-04-11T02:28:43.143Z,9.15
2023-04-11T02:29:45.637Z,7.13
2023-04-11T02:30:48.635Z,5.82
2023-04-11T02:31:50.875Z,7.35
2023-04-11T02:32:53.874Z,9.38
2023-04-11T02:33:55.894Z,6.80
2023-04-11T02:34:58.892Z,6.85
2023-04-11T02:36:01.140Z,6.85
2023-04-11T02:37:04.229Z,7.65
2023-04-11T02:38:06.178Z,6.03
2023-04-11T02:39:09.142Z,7.10
2023-04-11T02:40:11.683Z,5.22
2023-04-11T02:41:14.624Z,7.38
2023-04-11T02:42:17.929Z,6.28
2023-04-11T02:43:20.936Z,6.90
2023-04-11T02:44:22.928Z,6.15
2023-04-11T02:45:25.937Z,7.15
2023-04-11T02:46:27.932Z,5.68
2023-04-11T02:47:30.886Z,7.07
2023-04-11T02:48:32.980Z,7.50
2023-04-11T02:49:35.917Z,7.20
2023-04-11T02:50:40.839Z,7.68
2023-04-11T02:51:43.892Z,8.27
2023-04-11T02:52:47.950Z,8.32
2023-04-11T02:53:52.190Z,6.35
2023-04-11T02:54:54.106Z,7.28
2023-04-11T02:55:57.092Z,10.43
2023-04-11T02:56:59.121Z,9.15
2023-04-11T02:58:03.470Z,8.25
2023-04-11T02:59:06.436Z,6.93
2023-04-11T03:00:10.583Z,7.80
2023-04-11T03:01:14.752Z,15.05
2023-04-11T03:02:17.957Z,8.80
2023-04-11T03:03:20.266Z,8.13
2023-04-11T03:04:23.456Z,9.10
2023-04-11T03:05:25.431Z,8.45
2023-04-11T03:06:29.175Z,7.78
2023-04-11T03:07:31.545Z,7.70
2023-04-11T03:08:35.826Z,8.90
2023-04-11T03:09:37.826Z,7.25
2023-04-11T03:10:40.798Z,8.10
2023-04-11T03:11:42.779Z,9.98
2023-04-11T03:12:45.703Z,10.88
2023-04-11T03:13:48.995Z,9.52
2023-04-11T03:14:51.943Z,8.60
2023-04-11T03:15:53.908Z,7.07
2023-04-11T03:16:56.911Z,10.65
2023-04-11T03:17:58.886Z,10.07
2023-04-11T03:19:01.860Z,11.27
2023-04-11T03:20:08.388Z,7.60
2023-04-11T03:21:11.382Z,9.82
2023-04-11T03:22:14.440Z,9.18
2023-04-11T03:23:16.546Z,7.90
2023-04-11T03:24:19.578Z,7.05
2023-04-11T03:25:22.483Z,11.27
2023-04-11T03:26:27.071Z,9.20
2023-04-11T03:27:29.060Z,9.52
2023-04-11T03:28:32.001Z,7.15
2023-04-11T03:29:35.329Z,13.20
2023-04-11T03:30:42.480Z,10.48
2023-04-11T03:31:44.508Z,8.65
2023-04-11T03:32:47.541Z,10.25
2023-04-11T03:33:49.516Z,7.97
2023-04-11T03:34:52.618Z,7.80
2023-04-11T03:35:54.713Z,9.73
2023-04-11T03:36:57.984Z,9.43
2023-04-11T03:37:59.934Z,6.75
2023-04-11T03:39:02.843Z,8.55
2023-04-11T03:40:08.250Z,8.52
2023-04-11T03:41:11.284Z,9.52
2023-04-11T03:42:13.326Z,8.18
2023-04-11T03:43:16.805Z,7.90
2023-04-11T03:44:18.734Z,9.73
2023-04-11T03:45:23.071Z,10.02
2023-04-11T03:46:25.175Z,6.82
2023-04-11T03:47:28.267Z,11.05
2023-04-11T03:48:31.031Z,8.32
2023-04-11T03:49:34.009Z,10.45
2023-04-11T03:50:36.067Z,12.55
2023-04-11T03:51:39.081Z,8.95
2023-04-11T03:52:41.011Z,9.60
2023-04-11T03:53:43.970Z,10.93
2023-04-11T03:54:47.665Z,17.08
2023-04-11T03:55:52.729Z,11.07
2023-04-11T03:56:55.983Z,8.68
2023-04-11T03:57:57.949Z,10.15
2023-04-11T03:59:01.550Z,16.15
2023-04-11T04:00:05.852Z,12.45
2023-04-11T04:01:10.211Z,11.57
2023-04-11T04:02:12.323Z,10.23
2023-04-11T04:03:15.413Z,10.80
2023-04-11T04:04:17.597Z,9.48
2023-04-11T04:05:20.661Z,9.60
2023-04-11T04:06:22.686Z,11.45
2023-04-11T04:07:25.769Z,8.10
2023-04-11T04:08:27.731Z,8.98
2023-04-11T04:09:30.631Z,11.27
2023-04-11T04:10:32.687Z,10.35
2023-04-11T04:11:35.674Z,10.13
2023-04-11T04:12:37.644Z,9.52
2023-04-11T04:13:40.571Z,13.50
2023-04-11T04:14:42.542Z,10.70
2023-04-11T04:15:45.603Z,9.65
2023-04-11T04:16:48.891Z,9.07
2023-04-11T04:17:52.392Z,10.95
2023-04-11T04:18:54.315Z,11.10
2023-04-11T04:19:57.336Z,10.85
2023-04-11T04:20:59.423Z,9.85
2023-04-11T04:22:02.402Z,9.75
2023-04-11T04:23:06.029Z,9.48
2023-04-11T04:24:09.096Z,8.88
2023-04-11T04:25:12.658Z,12.45
2023-04-11T04:26:16.982Z,8.15
2023-04-11T04:27:18.924Z,9.23
2023-04-11T04:28:22.508Z,11.40
2023-04-11T04:29:29.374Z,10.05
2023-04-11T04:30:32.763Z,10.48
2023-04-11T04:31:35.028Z,9.63
2023-04-11T04:32:41.154Z,11.05
2023-04-11T04:33:43.343Z,9.18
2023-04-11T04:34:49.668Z,9.15
2023-04-11T04:35:58.107Z,10.95
2023-04-11T04:37:02.047Z,11.32
2023-04-11T04:38:06.519Z,10.63
2023-04-11T04:39:09.881Z,11.23
2023-04-11T04:40:14.074Z,10.13
2023-04-11T04:41:17.078Z,10.20
2023-04-11T04:42:18.996Z,11.18
2023-04-11T04:43:24.053Z,12.65
2023-04-11T04:44:26.415Z,9.60
2023-04-11T04:45:29.474Z,10.57
2023-04-11T04:46:36.701Z,10.10
2023-04-11T04:47:41.077Z,9.40
2023-04-11T04:48:42.994Z,9.88
2023-04-11T04:49:46.480Z,9.88
2023-04-11T04:50:48.504Z,9.38
2023-04-11T04:51:51.522Z,10.93
2023-04-11T04:52:53.483Z,10.30
2023-04-11T04:53:57.790Z,9.18
2023-04-11T04:55:01.619Z,9.00
2023-04-11T04:56:03.903Z,9.02
2023-04-11T04:57:07.065Z,7.90
2023-04-11T04:58:09.008Z,8.73
2023-04-11T04:59:14.675Z,11.50
2023-04-11T05:00:17.102Z,10.60
2023-04-11T05:01:20.581Z,9.95
2023-04-11T05:02:23.094Z,10.02
2023-04-11T05:03:27.917Z,9.45
2023-04-11T05:04:30.495Z,12.45
2023-04-11T05:05:33.537Z,8.35
2023-04-11T05:06:35.804Z,10.57
2023-04-11T05:07:38.771Z,11.20
2023-04-11T05:08:40.788Z,17.20
2023-04-11T05:09:43.747Z,10.63
2023-04-11T05:10:45.673Z,11.35
2023-04-11T05:11:50.352Z,9.50
2023-04-11T05:12:53.496Z,10.35
2023-04-11T05:13:56.946Z,11.05
2023-04-11T05:14:59.059Z,10.30
2023-04-11T05:16:02.389Z,13.52
2023-04-11T05:18:07.259Z,11.60
2023-04-11T05:19:10.662Z,11.60
2023-04-11T05:20:15.621Z,11.13
2023-04-11T05:21:17.678Z,11.27
2023-04-11T05:22:20.583Z,10.77
2023-04-11T05:23:22.558Z,12.18
2023-04-11T05:24:25.612Z,13.07
2023-04-11T05:25:27.771Z,10.80
2023-04-11T05:26:31.690Z,11.27
2023-04-11T05:27:33.581Z,12.93
2023-04-11T05:28:36.939Z,10.25
2023-04-11T05:29:38.851Z,10.52
2023-04-11T05:30:41.818Z,8.40
2023-04-11T05:31:44.781Z,12.25
2023-04-11T05:32:47.778Z,10.95
2023-04-11T05:33:50.782Z,10.38
2023-04-11T05:34:59.290Z,10.18
2023-04-11T05:36:02.536Z,10.35
2023-04-11T05:37:04.440Z,9.48
2023-04-11T05:38:07.383Z,12.60
2023-04-11T05:39:09.412Z,12.45
2023-04-11T05:40:12.788Z,12.68
2023-04-11T05:41:14.879Z,11.40
2023-04-11T05:42:18.572Z,12.60
2023-04-11T05:43:20.494Z,11.48
2023-04-11T05:44:23.465Z,12.90
2023-04-11T05:45:25.569Z,12.82
2023-04-11T05:46:29.428Z,9.98
2023-04-11T05:47:32.134Z,10.38
2023-04-11T05:48:35.290Z,11.15
2023-04-11T05:49:38.228Z,13.32
2023-04-11T05:50:41.662Z,14.52
2023-04-11T05:51:44.610Z,13.45
2023-04-11T05:52:46.611Z,11.68
2023-04-11T05:53:49.583Z,10.82
2023-04-11T05:54:51.536Z,12.95
2023-04-11T05:55:54.698Z,12.32
2023-04-11T05:56:56.928Z,8.77
2023-04-11T05:58:00.125Z,11.13
2023-04-11T05:59:02.158Z,11.55
2023-04-11T06:00:12.845Z,9.85
2023-04-11T06:01:18.389Z,7.90
2023-04-11T06:02:20.521Z,11.15
2023-04-11T06:03:23.656Z,10.15
2023-04-11T06:04:26.118Z,10.25
2023-04-11T06:05:31.410Z,14.88
2023-04-11T06:06:36.059Z,11.93
2023-04-11T06:07:39.304Z,12.85
2023-04-11T06:08:42.789Z,12.57
2023-04-11T06:09:44.783Z,13.40
2023-04-11T06:10:47.810Z,13.07
2023-04-11T06:11:49.772Z,11.15
2023-04-11T06:12:52.827Z,9.73
2023-04-11T06:13:54.915Z,11.10
2023-04-11T06:14:58.068Z,9.70
2023-04-11T06:16:00.073Z,13.25
2023-04-11T06:17:03.218Z,11.05
2023-04-11T06:18:06.285Z,13.93
2023-04-11T06:19:08.435Z,12.60
2023-04-11T06:20:11.662Z,10.45
2023-04-11T06:21:14.620Z,11.00
2023-04-11T06:22:17.945Z,16.60
2023-04-11T06:23:21.298Z,12.55
2023-04-11T06:24:36.821Z,11.57
2023-04-11T06:25:39.826Z,11.48
2023-04-11T06:26:41.764Z,9.73
2023-04-11T06:27:44.699Z,12.98
2023-04-11T06:28:46.636Z,11.85
2023-04-11T06:29:49.625Z,10.88
2023-04-11T06:30:52.595Z,12.27
2023-04-11T06:31:54.542Z,13.43
2023-04-11T06:32:58.992Z,11.73
2023-04-11T06:34:01.692Z,13.73
2023-04-11T06:35:04.949Z,9.75
2023-04-11T06:36:07.285Z,10.75
2023-04-11T06:37:10.605Z,9.63
2023-04-11T06:38:14.942Z,11.98
2023-04-11T06:39:17.240Z,9.95
2023-04-11T06:40:21.208Z,13.77
2023-04-11T06:41:25.241Z,11.00
2023-04-11T06:42:27.350Z,15.30
2023-04-11T06:43:31.978Z,18.25
2023-04-11T06:44:34.033Z,11.73
2023-04-11T06:45:37.039Z,11.90
2023-04-11T06:46:39.230Z,10.88
2023-04-11T06:47:42.260Z,11.35
2023-04-11T06:48:44.220Z,14.68
2023-04-11T06:49:47.183Z,12.38
2023-04-11T06:50:50.188Z,10.93
2023-04-11T06:51:52.151Z,10.27
2023-04-11T06:52:55.759Z,10.48
2023-04-11T06:53:59.224Z,14.82
2023-04-11T06:55:02.216Z,13.48
2023-04-11T06:56:04.585Z,12.10
2023-04-11T06:57:07.563Z,13.38
2023-04-11T06:58:09.943Z,11.00
2023-04-11T06:59:12.928Z,10.23
2023-04-11T07:00:17.032Z,12.50
2023-04-11T07:01:20.630Z,9.10
2023-04-11T07:02:25.154Z,11.48
2023-04-11T07:03:27.595Z,12.45
2023-04-11T07:04:30.983Z,11.70
2023-04-11T07:05:33.129Z,11.63
2023-04-11T07:06:36.617Z,14.20
2023-04-11T07:07:39.732Z,9.25
2023-04-11T07:08:42.321Z,9.55
2023-04-11T07:09:47.591Z,12.90
2023-04-11T07:10:50.761Z,10.55
2023-04-11T07:11:52.766Z,11.38
2023-04-11T07:12:56.378Z,11.48
2023-04-11T07:13:59.643Z,12.07
2023-04-11T07:15:03.646Z,12.38
2023-04-11T07:16:06.436Z,11.65
2023-04-11T07:17:09.334Z,11.40
2023-04-11T07:18:11.308Z,11.80
2023-04-11T07:19:14.432Z,10.20
2023-04-11T07:20:16.429Z,12.50
2023-04-11T07:21:19.496Z,13.52
2023-04-11T07:22:22.420Z,13.45
2023-04-11T07:23:25.374Z,15.13
2023-04-11T07:24:30.407Z,12.60
2023-04-11T07:25:34.867Z,13.98
2023-04-11T07:26:38.794Z,14.20
2023-04-11T07:27:43.545Z,14.27
2023-04-11T07:28:46.100Z,10.85
2023-04-11T07:29:49.084Z,11.45
2023-04-11T07:30:52.102Z,9.95
2023-04-11T07:31:55.490Z,9.02
2023-04-11T07:32:57.654Z,11.75
2023-04-11T07:34:00.697Z,10.27
2023-04-11T07:35:03.663Z,16.13
2023-04-11T07:36:06.853Z,6.60
2023-04-11T07:37:09.835Z,6.57
2023-04-11T07:38:12.490Z,11.77
2023-04-11T07:39:15.937Z,7.28
2023-04-11T07:40:18.026Z,7.30
2023-04-11T07:41:22.266Z,4.88
2023-04-11T07:42:24.224Z,3.60
2023-04-11T07:43:28.274Z,3.92
2023-04-11T07:44:31.224Z,1.67
2023-04-11T07:45:34.172Z,3.25
2023-04-11T07:46:37.241Z,2.55
2023-04-11T07:47:39.190Z,1.30
2023-04-11T07:48:43.394Z,4.20
2023-04-11T07:49:45.408Z,2.38
2023-04-11T07:50:48.399Z,2.35
2023-04-11T07:51:51.385Z,1.63
2023-04-11T07:52:53.330Z,1.35
2023-04-11T07:53:57.678Z,1.10
2023-04-11T07:55:00.815Z,2.35
2023-04-11T07:56:02.912Z,1.40
2023-04-11T07:57:07.272Z,1.27
2023-04-11T07:58:09.329Z,0.70
2023-04-11T07:59:13.202Z,1.10
2023-04-11T08:00:20.639Z,1.20
2023-04-11T08:01:25.079Z,5.80
2023-04-11T08:02:27.263Z,1.30
2023-04-11T08:03:30.541Z,0.90
2023-04-11T08:04:33.489Z,1.30
2023-04-11T08:05:38.328Z,1.27
2023-04-11T08:06:41.425Z,1.48
2023-04-11T08:07:43.651Z,0.90
2023-04-11T08:08:47.776Z,1.50
2023-04-11T08:09:50.833Z,0.90
2023-04-11T08:10:53.738Z,1.67
2023-04-11T08:11:56.946Z,3.20
2023-04-11T08:13:01.389Z,1.40
2023-04-11T08:14:03.348Z,1.70
2023-04-11T08:15:07.024Z,2.35
2023-04-11T08:16:10.607Z,1.42
2023-04-11T08:17:27.154Z,3.20
2023-04-11T08:18:31.219Z,1.25
2023-04-11T08:19:34.133Z,2.75
2023-04-11T08:20:36.253Z,2.28
2023-04-11T08:21:39.312Z,5.47
2023-04-11T08:22:44.636Z,1.08
2023-04-11T08:23:47.922Z,2.55
2023-04-11T08:24:49.960Z,1.75
2023-04-11T08:25:54.002Z,1.80
2023-04-11T08:26:55.909Z,1.77
2023-04-11T08:27:58.856Z,1.55
2023-04-11T08:29:03.506Z,1.38
2023-04-11T08:30:08.697Z,0.70
2023-04-11T08:31:13.157Z,1.63
2023-04-11T08:32:15.695Z,2.55
2023-04-11T08:33:18.644Z,0.80
2023-04-11T08:34:21.623Z,1.10
2023-04-11T08:35:23.709Z,0.65
2023-04-11T08:36:27.350Z,1.95
2023-04-11T08:37:30.424Z,0.90
2023-04-11T08:38:33.324Z,1.42
2023-04-11T08:39:36.514Z,0.70
2023-04-11T08:40:39.431Z,1.02
2023-04-11T08:41:42.726Z,0.90
2023-04-11T08:42:45.829Z,0.90
2023-04-11T08:43:49.831Z,2.45
2023-04-11T08:44:57.687Z,0.98
2023-04-11T08:46:02.654Z,0.90
2023-04-11T08:47:05.825Z,2.10
2023-04-11T08:48:09.191Z,0.80
2023-04-11T08:49:12.520Z,3.40
2023-04-11T08:50:14.502Z,0.70
2023-04-11T08:51:22.839Z,4.30
2023-04-11T08:52:25.395Z,1.48
2023-04-11T08:53:30.130Z,1.23
2023-04-11T08:54:32.059Z,2.05
2023-04-11T08:55:35.346Z,1.20
2023-04-11T08:56:40.253Z,1.40
2023-04-11T08:57:43.346Z,2.50
2023-04-11T08:58:45.613Z,0.80
2023-04-11T08:59:51.137Z,0.70
2023-04-11T09:00:55.453Z,0.93
2023-04-11T09:02:07.037Z,1.02
2023-04-11T09:03:11.511Z,0.90
2023-04-11T09:04:13.617Z,1.67
2023-04-11T09:05:26.399Z,3.40
2023-04-11T09:06:30.735Z,0.60
2023-04-11T09:07:48.530Z,1.20
2023-04-11T09:08:51.476Z,3.08
2023-04-11T09:09:53.430Z,0.70
2023-04-11T09:11:02.442Z,0.60
2023-04-11T09:12:05.147Z,1.02
2023-04-11T09:13:22.502Z,1.02
2023-04-11T09:14:25.647Z,1.10
2023-04-11T09:15:30.048Z,1.00
2023-04-11T09:16:33.760Z,1.13
2023-04-11T09:17:42.970Z,0.88
2023-04-11T09:18:47.246Z,1.50
2023-04-11T09:19:49.582Z,0.93
2023-04-11T09:21:00.274Z,0.75
2023-04-11T09:22:06.141Z,1.13
2023-04-11T09:23:26.094Z,4.07
2023-04-11T09:24:31.095Z,1.05
2023-04-11T09:25:45.408Z,0.70
2023-04-11T09:26:47.316Z,0.82
2023-04-11T09:27:51.072Z,1.77
2023-04-11T09:28:53.782Z,1.00
2023-04-11T09:29:56.984Z,1.20
2023-04-11T09:30:58.939Z,0.75
2023-04-11T09:32:03.305Z,1.27
2023-04-11T09:33:21.754Z,1.27
2023-04-11T09:34:27.520Z,0.90
2023-04-11T09:35:30.481Z,2.00
2023-04-11T09:36:32.595Z,1.30
2023-04-11T09:37:47.765Z,0.70
2023-04-11T09:38:51.772Z,0.80
2023-04-11T09:39:59.177Z,0.90
2023-04-11T09:41:03.566Z,0.98
2023-04-11T09:42:24.384Z,1.33
2023-04-11T09:43:27.912Z,1.13
2023-04-11T09:44:37.447Z,0.90
2023-04-11T09:45:51.629Z,0.90
2023-04-11T09:47:00.820Z,0.70
2023-04-11T09:48:05.412Z,0.90
2023-04-11T09:50:14.881Z,2.33
2023-04-11T09:51:34.184Z,0.80
2023-04-11T09:52:41.095Z,1.73
2023-04-11T09:53:46.090Z,0.90
2023-04-11T09:54:50.764Z,0.98
2023-04-11T09:55:53.928Z,1.00
2023-04-11T09:56:59.476Z,0.98
2023-04-11T09:58:02.333Z,0.90
2023-04-11T09:59:05.671Z,0.82
2023-04-11T10:00:16.760Z,0.60
2023-04-11T10:01:20.906Z,0.85
2023-04-11T10:02:23.007Z,0.60
2023-04-11T10:03:27.688Z,2.30
2023-04-11T10:04:31.013Z,0.75
2023-04-11T10:05:33.486Z,0.63
2023-04-11T10:06:42.417Z,1.00
2023-04-11T10:07:52.360Z,0.60
2023-04-11T10:08:55.397Z,0.95
2023-04-11T10:09:58.613Z,0.98
2023-04-11T10:11:01.485Z,0.60
2023-04-11T10:12:04.564Z,2.47
2023-04-11T10:13:41.256Z,1.20
2023-04-11T10:14:47.004Z,0.70
2023-04-11T10:16:09.499Z,0.90
2023-04-11T10:17:14.093Z,1.15
2023-04-11T10:18:17.211Z,1.48
2023-04-11T10:19:27.189Z,1.20
2023-04-11T10:20:47.987Z,4.00
2023-04-11T10:21:49.980Z,1.10
2023-04-11T10:23:02.103Z,1.55
2023-04-11T10:24:09.972Z,1.00
2023-04-11T10:25:19.908Z,3.97
2023-04-11T10:26:43.003Z,0.80
2023-04-11T10:27:50.254Z,0.60
2023-04-11T10:28:53.246Z,0.80
2023-04-11T10:29:56.239Z,1.27
2023-04-11T10:31:17.672Z,0.70
2023-04-11T10:32:22.185Z,0.70
2023-04-11T10:33:26.880Z,1.40
2023-04-11T10:34:31.903Z,1.98
2023-04-11T10:35:34.910Z,0.80
2023-04-11T10:37:03.527Z,5.40
2023-04-11T10:38:47.067Z,1.00
2023-04-11T10:40:09.688Z,0.95
2023-04-11T10:41:31.358Z,1.05
2023-04-11T10:42:35.441Z,0.80
2023-04-11T10:43:39.281Z,1.25
2023-04-11T10:44:41.274Z,1.02
2023-04-11T10:45:44.929Z,0.90
2023-04-11T10:46:51.884Z,0.57
2023-04-11T10:48:07.782Z,0.70
2023-04-11T10:49:10.874Z,0.85
2023-04-11T10:50:45.786Z,0.90
2023-04-11T10:51:47.806Z,0.60
2023-04-11T10:52:50.867Z,0.60
2023-04-11T10:53:53.048Z,0.52
2023-04-11T10:54:56.074Z,0.75
2023-04-11T10:55:58.076Z,0.60
2023-04-11T10:57:01.009Z,0.73
2023-04-11T10:58:07.983Z,0.93
2023-04-11T10:59:56.439Z,1.08
2023-04-11T11:01:26.029Z,1.95
2023-04-11T11:02:39.588Z,1.00
2023-04-11T11:03:53.385Z,0.60
2023-04-11T11:04:55.483Z,1.15
2023-04-11T11:06:01.564Z,0.80
2023-04-11T11:07:06.118Z,1.20
2023-04-11T11:08:10.579Z,1.58
2023-04-11T11:09:23.195Z,0.70
2023-04-11T11:10:43.540Z,0.80
2023-04-11T11:11:47.076Z,0.70
2023-04-11T11:12:53.645Z,0.95
2023-04-11T11:13:57.086Z,1.25
2023-04-11T11:14:59.145Z,1.08
2023-04-11T11:16:02.248Z,0.60
2023-04-11T11:17:04.751Z,1.10
2023-04-11T11:18:09.746Z,0.70
2023-04-11T11:19:15.418Z,2.22
2023-04-11T11:20:20.097Z,0.70
2023-04-11T11:21:28.842Z,0.90
2023-04-11T11:22:30.970Z,0.90
2023-04-11T11:23:36.108Z,0.70
2023-04-11T11:24:38.487Z,1.27
2023-04-11T11:25:41.957Z,0.82
2023-04-11T11:26:44.570Z,0.80
2023-04-11T11:27:47.509Z,1.20
2023-04-11T11:28:50.607Z,2.65
2023-04-11T11:29:53.918Z,2.42
2023-04-11T11:30:57.248Z,1.02
2023-04-11T11:32:03.553Z,2.35
2023-04-11T11:33:17.893Z,3.65
2023-04-11T11:34:28.819Z,2.20
2023-04-11T11:35:30.954Z,2.45
2023-04-11T11:36:40.602Z,1.25
2023-04-11T11:37:42.906Z,1.50
2023-04-11T11:38:45.911Z,2.42
2023-04-11T11:39:48.314Z,2.00
2023-04-11T11:40:51.807Z,1.45
2023-04-11T11:41:53.848Z,1.48
2023-04-11T11:42:57.028Z,0.70
2023-04-11T11:44:01.292Z,2.80
2023-04-11T11:45:14.887Z,3.55
2023-04-11T11:46:17.891Z,1.20
2023-04-11T11:47:19.959Z,1.50
2023-04-11T11:48:24.984Z,1.55
2023-04-11T11:49:27.928Z,0.93
2023-04-11T11:50:32.035Z,0.90
2023-04-11T11:51:43.059Z,1.08
2023-04-11T11:52:45.077Z,4.97
2023-04-11T11:54:03.563Z,3.03
2023-04-11T11:55:11.459Z,1.65
2023-04-11T11:56:16.281Z,1.77
2023-04-11T11:57:22.854Z,0.80
2023-04-11T11:58:26.325Z,2.60
2023-04-11T11:59:28.274Z,4.10
2023-04-11T12:00:33.196Z,3.10
2023-04-11T12:01:37.313Z,4.20
2023-04-11T12:02:40.781Z,2.28
2023-04-11T12:03:44.112Z,3.55
2023-04-11T12:04:46.786Z,1.63
2023-04-11T12:05:51.448Z,0.95
2023-04-11T12:06:55.288Z,1.75
2023-04-11T12:07:59.857Z,2.78
2023-04-11T12:09:04.444Z,3.70
2023-04-11T12:10:08.178Z,3.08
2023-04-11T12:11:15.985Z,2.55
2023-04-11T12:12:18.918Z,0.80
2023-04-11T12:13:23.685Z,1.15
2023-04-11T12:14:25.707Z,1.50
2023-04-11T12:15:28.635Z,5.75
2023-04-11T12:16:31.699Z,2.42
2023-04-11T12:17:36.319Z,2.03
2023-04-11T12:18:43.033Z,3.00
2023-04-11T12:19:45.024Z,3.00
2023-04-11T12:20:47.988Z,2.00
2023-04-11T12:21:51.501Z,2.97
2023-04-11T12:22:55.398Z,7.93
2023-04-11T12:23:58.886Z,2.95
2023-04-11T12:25:05.836Z,1.90
2023-04-11T12:26:08.900Z,3.30
2023-04-11T12:27:12.621Z,5.32
2023-04-11T12:28:15.793Z,3.88
2023-04-11T12:29:18.745Z,2.38
2023-04-11T12:30:20.688Z,3.35
2023-04-11T12:31:25.111Z,1.95
2023-04-11T12:32:27.562Z,2.25
2023-04-11T12:33:30.583Z,10.13
2023-04-11T12:34:32.500Z,2.65
2023-04-11T12:35:35.669Z,1.77
2023-04-11T12:36:37.594Z,1.20
2023-04-11T12:37:41.170Z,1.75
2023-04-11T12:38:45.562Z,1.23
2023-04-11T12:39:47.684Z,1.27
2023-04-11T12:40:56.845Z,2.05
2023-04-11T12:42:06.466Z,2.60
2023-04-11T12:43:09.411Z,3.30
2023-04-11T12:44:12.308Z,4.50
2023-04-11T12:45:14.882Z,1.55
2023-04-11T12:46:18.775Z,1.60
2023-04-11T12:47:20.869Z,1.35
2023-04-11T12:48:23.834Z,2.33
2023-04-11T12:49:27.537Z,4.05
2023-04-11T12:50:30.583Z,2.53
2023-04-11T12:51:33.553Z,2.28
2023-04-11T12:52:36.665Z,1.40
2023-04-11T12:53:39.617Z,1.42
2023-04-11T12:54:42.996Z,2.25
2023-04-11T12:55:46.027Z,1.88
2023-04-11T12:56:48.080Z,2.15
2023-04-11T12:57:51.226Z,1.40
2023-04-11T12:58:53.195Z,2.70
2023-04-11T12:59:56.150Z,0.80
2023-04-11T13:00:59.540Z,1.17
2023-04-11T13:02:02.108Z,0.82
2023-04-11T13:03:06.030Z,1.13
2023-04-11T13:04:08.353Z,1.45
2023-04-11T13:05:14.232Z,2.10
2023-04-11T13:06:17.001Z,1.15
2023-04-11T13:07:19.940Z,1.20
2023-04-11T13:08:23.224Z,2.47
2023-04-11T13:09:25.258Z,0.90
2023-04-11T13:10:29.621Z,2.60
2023-04-11T13:11:31.821Z,2.67
2023-04-11T13:12:39.741Z,2.85
2023-04-11T13:13:41.746Z,2.58
2023-04-11T13:14:44.695Z,1.33
2023-04-11T13:15:47.796Z,1.52
2023-04-11T13:16:49.957Z,1.00
2023-04-11T13:17:53.088Z,1.63
2023-04-11T13:18:55.384Z,3.25
2023-04-11T13:19:58.468Z,1.77
2023-04-11T13:21:00.411Z,1.55
2023-04-11T13:22:03.928Z,1.38
2023-04-11T13:23:06.967Z,1.20
2023-04-11T13:24:10.053Z,2.53
2023-04-11T13:25:13.230Z,1.00
2023-04-11T13:26:17.716Z,2.80
2023-04-11T13:27:22.063Z,1.65
2023-04-11T13:28:25.092Z,0.70
2023-04-11T13:29:27.139Z,1.30
2023-04-11T13:30:30.095Z,2.80
2023-04-11T13:31:32.143Z,3.67
2023-04-11T13:32:35.110Z,2.58
2023-04-11T13:33:37.123Z,0.70
2023-04-11T13:34:40.057Z,1.80
2023-04-11T13:35:43.316Z,1.70
2023-04-11T13:36:46.829Z,1.40
2023-04-11T13:37:49.762Z,3.25
2023-04-11T13:38:53.982Z,2.45
2023-04-11T13:39:55.981Z,2.53
2023-04-11T13:40:58.902Z,1.00
2023-04-11T13:42:03.362Z,1.20
2023-04-11T13:43:06.395Z,1.50
2023-04-11T13:44:08.425Z,1.80
2023-04-11T13:45:12.157Z,2.67
2023-04-11T13:46:16.144Z,5.25
2023-04-11T13:47:19.085Z,3.08
2023-04-11T13:48:21.002Z,3.50
2023-04-11T13:49:24.015Z,6.40
2023-04-11T13:50:26.026Z,2.45
2023-04-11T13:51:29.035Z,2.45
2023-04-11T13:52:32.027Z,1.58
2023-04-11T13:53:34.973Z,6.25
2023-04-11T13:54:38.752Z,1.40
2023-04-11T13:55:41.784Z,3.83
2023-04-11T13:56:44.711Z,3.08
2023-04-11T13:57:47.982Z,3.70
2023-04-11T13:58:51.927Z,1.02
2023-04-11T13:59:54.941Z,1.45
2023-04-11T14:00:56.988Z,1.05
2023-04-11T14:02:00.059Z,2.25
2023-04-11T14:03:02.592Z,1.13
2023-04-11T14:04:06.018Z,2.53
2023-04-11T14:05:10.654Z,2.40
2023-04-11T14:06:12.777Z,4.30
2023-04-11T14:07:16.079Z,4.63
2023-04-11T14:08:18.077Z,2.25
2023-04-11T14:09:21.162Z,2.90